Time;durP1;ratioP1;P1;durP2;ratioP2;P2;SDS_P1;SDS_P2;PMS_P1;PMS_P2;Temp;Humidity;BMP_temperature;BMP_pressure;BME280_temperature;BME280_humidity;BME280_pressure;Samples;Min_cycle;Max_cycle;Signal;HPM_P1;HPM_P2
2022/03/23 00:01:56;;;;;;;43.57;28.60;;;;;;;10.69;49.13;101902.34;5128336;27;20796;-66
2022/03/23 00:04:24;;;;;;;40.83;26.53;;;;;;;10.66;49.34;101891.94;5118909;27;20233;-65
2022/03/23 00:06:54;;;;;;;45.30;26.97;;;;;;;10.67;48.94;101891.00;5125354;27;20639;-65
2022/03/23 00:09:21;;;;;;;41.90;27.10;;;;;;;10.60;48.80;101884.47;5120882;27;20209;-65
2022/03/23 00:12:07;;;;;;;38.13;25.67;;;;;;;10.56;49.03;101888.28;5123836;27;20231;-65
2022/03/23 00:14:35;;;;;;;42.07;26.93;;;;;;;10.51;49.43;101879.84;5122728;27;20280;-65
2022/03/23 00:17:04;;;;;;;40.43;26.23;;;;;;;10.53;49.28;101881.44;5126070;28;20241;-65
2022/03/23 00:19:33;;;;;;;41.73;26.70;;;;;;;10.48;49.45;101880.91;5122544;28;20292;-66
2022/03/23 00:22:03;;;;;;;45.87;26.43;;;;;;;10.46;49.52;101882.00;5127023;28;20613;-66
2022/03/23 00:24:31;;;;;;;40.77;26.37;;;;;;;10.42;49.18;101888.47;5125335;28;20209;-66
2022/03/23 00:26:58;;;;;;;45.37;26.40;;;;;;;10.37;49.51;101890.63;5120606;28;20209;-66
2022/03/23 00:29:26;;;;;;;44.20;25.97;;;;;;;10.35;49.43;101889.88;5119089;28;20642;-66
2022/03/23 00:31:54;;;;;;;39.90;25.90;;;;;;;10.30;49.61;101884.06;5121541;27;20197;-65
2022/03/23 00:34:24;;;;;;;41.87;25.77;;;;;;;10.27;49.49;101893.09;5118854;28;20255;-65
2022/03/23 00:36:52;;;;;;;43.33;27.17;;;;;;;10.26;49.62;101890.56;5121613;28;20204;-65
2022/03/23 00:39:22;;;;;;;39.43;26.40;;;;;;;10.22;50.24;101886.41;5118799;28;20295;-65
2022/03/23 00:41:50;;;;;;;39.87;25.00;;;;;;;10.27;49.88;101887.81;5119683;27;20217;-65
2022/03/23 00:44:18;;;;;;;36.90;25.67;;;;;;;10.18;50.30;101889.31;5119831;27;20236;-65
2022/03/23 00:46:46;;;;;;;44.53;27.30;;;;;;;10.22;50.01;101897.88;5122969;28;20772;-65
2022/03/23 00:49:13;;;;;;;44.17;27.37;;;;;;;10.18;50.22;101899.06;5120601;28;20309;-65
2022/03/23 00:51:41;;;;;;;45.70;25.70;;;;;;;10.21;50.37;101897.97;5119751;27;20619;-67
2022/03/23 00:54:10;;;;;;;43.73;26.13;;;;;;;10.14;50.72;101895.75;5118097;28;20232;-65
2022/03/23 00:56:39;;;;;;;39.90;26.07;;;;;;;10.17;50.46;101892.03;5118126;28;20230;-65
2022/03/23 00:59:08;;;;;;;42.70;26.53;;;;;;;10.18;50.20;101889.31;5120684;28;20219;-65
2022/03/23 01:01:35;;;;;;;44.10;27.07;;;;;;;10.12;50.40;101892.34;5117739;28;20206;-66
2022/03/23 01:04:04;;;;;;;40.27;26.13;;;;;;;10.06;50.21;101884.84;5115598;28;20564;-65
2022/03/23 01:06:31;;;;;;;36.57;24.27;;;;;;;10.04;51.00;101886.75;5120460;28;20289;-65
2022/03/23 01:08:59;;;;;;;41.37;25.30;;;;;;;10.01;50.51;101887.00;5117736;28;20312;-66
2022/03/23 01:11:27;;;;;;;39.27;24.70;;;;;;;9.96;51.00;101889.13;5118528;27;20214;-64
2022/03/23 01:13:56;;;;;;;44.37;27.20;;;;;;;9.92;51.25;101882.34;5118269;27;20212;-65
2022/03/23 01:16:24;;;;;;;42.00;26.37;;;;;;;9.86;51.12;101889.88;5124778;27;20201;-65
2022/03/23 01:18:51;;;;;;;38.70;24.67;;;;;;;9.89;51.07;101890.53;5122235;27;20578;-65
2022/03/23 01:21:19;;;;;;;41.50;26.07;;;;;;;9.84;50.98;101889.16;5124612;27;20211;-65
2022/03/23 01:23:47;;;;;;;37.57;25.07;;;;;;;9.80;51.21;101893.81;5119689;27;20319;-65
2022/03/23 01:26:15;;;;;;;40.17;25.10;;;;;;;9.81;51.35;101887.56;5127905;27;20993;-65
2022/03/23 01:28:42;;;;;;;37.93;24.83;;;;;;;9.72;51.35;101888.22;5120919;27;20661;-65
2022/03/23 01:31:11;;;;;;;38.40;24.30;;;;;;;9.66;51.47;101886.00;5120503;27;20709;-65
2022/03/23 01:33:39;;;;;;;36.97;23.73;;;;;;;9.71;51.39;101891.81;5123537;27;20204;-65
2022/03/23 01:36:07;;;;;;;39.97;23.77;;;;;;;9.63;51.32;101886.22;5122534;27;20559;-65
2022/03/23 01:38:35;;;;;;;38.90;24.83;;;;;;;9.62;51.32;101889.81;5124187;27;20202;-65
2022/03/23 01:41:03;;;;;;;37.00;25.03;;;;;;;9.54;51.96;101886.84;5123353;27;20636;-65
2022/03/23 01:43:33;;;;;;;38.00;24.83;;;;;;;9.58;51.75;101883.91;5122564;27;20603;-65
2022/03/23 01:46:01;;;;;;;35.53;23.57;;;;;;;9.55;51.44;101884.09;5124160;27;20277;-65
2022/03/23 01:48:30;;;;;;;37.00;23.50;;;;;;;9.42;52.01;101884.09;5125255;27;20234;-65
2022/03/23 01:50:59;;;;;;;37.53;25.43;;;;;;;9.44;51.69;101891.94;5121328;27;20215;-65
2022/03/23 01:53:26;;;;;;;40.70;24.87;;;;;;;9.49;51.81;101891.63;5122931;27;20197;-65
2022/03/23 01:55:54;;;;;;;35.83;24.43;;;;;;;9.48;52.19;101877.56;5121539;27;20658;-65
2022/03/23 01:58:25;;;;;;;41.77;23.87;;;;;;;9.43;52.18;101882.31;5124603;27;20269;-65
2022/03/23 02:00:53;;;;;;;36.73;24.60;;;;;;;9.44;52.06;101886.66;5120431;27;20913;-65
2022/03/23 02:03:22;;;;;;;41.23;25.77;;;;;;;9.38;51.91;101885.28;5123936;27;20606;-65
2022/03/23 02:05:51;;;;;;;43.07;25.97;;;;;;;9.39;52.01;101883.47;5122063;27;20213;-65
2022/03/23 02:08:19;;;;;;;38.20;25.10;;;;;;;9.37;51.90;101880.09;5120802;27;20289;-65
2022/03/23 02:10:47;;;;;;;37.67;24.73;;;;;;;9.27;52.01;101879.88;5119317;27;20209;-65
2022/03/23 02:13:15;;;;;;;36.03;24.57;;;;;;;9.31;51.87;101884.03;5119865;27;20658;-65
2022/03/23 02:18:24;;;;;;;41.10;25.50;;;;;;;9.33;51.83;101871.50;5119479;27;20445;-65
2022/03/23 02:20:54;;;;;;;38.07;24.27;;;;;;;9.38;51.73;101876.50;5121349;27;20211;-65
2022/03/23 02:23:28;;;;;;;38.57;25.43;;;;;;;9.34;51.90;101873.19;5123260;27;20232;-65
2022/03/23 02:26:01;;;;;;;39.50;23.67;;;;;;;9.36;51.98;101884.53;5121967;27;20668;-65
2022/03/23 02:28:29;;;;;;;37.20;23.90;;;;;;;9.28;51.90;101876.28;5125273;27;20299;-65
2022/03/23 02:30:58;;;;;;;40.27;24.47;;;;;;;9.29;52.33;101880.63;5121353;27;20231;-66
2022/03/23 02:33:27;;;;;;;37.00;23.97;;;;;;;9.24;52.15;101869.50;5120302;27;20243;-65
2022/03/23 02:35:55;;;;;;;38.07;24.03;;;;;;;9.21;52.13;101877.66;5121109;27;20206;-65
2022/03/23 02:38:24;;;;;;;38.30;23.93;;;;;;;9.19;52.52;101876.06;5121596;27;20585;-65
2022/03/23 02:40:52;;;;;;;39.60;24.40;;;;;;;9.15;52.85;101880.69;5122046;27;20233;-65
2022/03/23 02:43:22;;;;;;;34.87;22.87;;;;;;;9.15;52.48;101879.88;5122651;27;20301;-65
2022/03/23 02:45:50;;;;;;;39.80;23.13;;;;;;;9.07;52.63;101877.72;5120364;27;20224;-65
2022/03/23 02:48:17;;;;;;;37.63;22.87;;;;;;;9.07;52.49;101877.72;5121870;27;20567;-65
2022/03/23 02:50:51;;;;;;;34.43;22.67;;;;;;;8.94;53.09;101879.53;5122142;27;20222;-65
2022/03/23 03:01:55;;;;;;;40.53;22.57;;;;;;;9.04;52.46;101877.97;5121758;27;20235;-64
2022/03/23 03:04:24;;;;;;;36.27;22.63;;;;;;;9.05;52.28;101882.31;5119454;27;20326;-65
2022/03/23 03:06:53;;;;;;;37.50;22.37;;;;;;;8.98;52.59;101883.66;5123199;27;20208;-65
2022/03/23 03:09:29;;;;;;;35.53;22.07;;;;;;;8.93;52.69;101881.31;5123296;27;20335;-65
2022/03/23 03:11:58;;;;;;;36.10;22.00;;;;;;;8.94;52.82;101895.41;5122176;27;20656;-64
2022/03/23 03:14:26;;;;;;;33.43;22.17;;;;;;;8.92;52.97;101897.31;5122613;27;20234;-64
2022/03/23 03:16:57;;;;;;;38.20;22.40;;;;;;;8.85;52.87;101891.56;5122269;27;20298;-64
2022/03/23 03:19:28;;;;;;;40.27;23.23;;;;;;;8.84;52.87;101891.69;5123664;27;20202;-64
2022/03/23 03:21:56;;;;;;;36.83;23.37;;;;;;;8.80;53.06;101900.75;5127643;27;20211;-64
2022/03/23 03:24:23;;;;;;;36.13;22.20;;;;;;;8.76;52.96;101894.84;5120290;27;20584;-65
2022/03/23 03:26:51;;;;;;;35.60;21.00;;;;;;;8.78;52.68;101897.38;5123512;27;20203;-66
2022/03/23 03:29:22;;;;;;;40.13;22.90;;;;;;;8.74;53.13;101902.00;5122691;27;20242;-64
2022/03/23 03:31:53;;;;;;;36.27;21.47;;;;;;;8.78;52.76;101900.88;5121979;27;20221;-65
2022/03/23 03:34:20;;;;;;;36.27;21.87;;;;;;;8.81;52.69;101905.09;5122708;27;20261;-65
2022/03/23 03:36:48;;;;;;;33.63;21.40;;;;;;;8.80;53.01;101911.31;5121505;27;20215;-65
2022/03/23 03:39:16;;;;;;;33.73;21.40;;;;;;;8.81;53.05;101913.88;5119867;27;20211;-65
2022/03/23 03:41:43;;;;;;;34.47;22.07;;;;;;;8.70;53.64;101910.28;5122534;27;20639;-65
2022/03/23 03:44:12;;;;;;;35.87;21.80;;;;;;;8.65;53.35;101913.19;5118475;27;20236;-65
2022/03/23 03:46:41;;;;;;;39.97;22.73;;;;;;;8.52;53.92;101918.47;5121585;27;20253;-64
2022/03/23 03:49:09;;;;;;;36.90;22.67;;;;;;;8.16;55.00;101915.50;5118781;27;20651;-64
2022/03/23 03:51:37;;;;;;;36.67;21.50;;;;;;;8.59;53.79;101913.63;5121266;27;20210;-65
2022/03/23 03:54:05;;;;;;;40.80;22.83;;;;;;;8.65;53.26;101914.06;5118259;27;20218;-65
2022/03/23 03:56:32;;;;;;;33.27;21.47;;;;;;;8.66;52.87;101914.91;5121144;27;20257;-65
2022/03/23 03:59:00;;;;;;;39.53;22.93;;;;;;;8.67;53.23;101917.44;5122759;27;20223;-66
2022/03/23 04:01:28;;;;;;;41.10;22.70;;;;;;;8.62;53.26;101919.53;5122311;27;20213;-65
2022/03/23 04:03:57;;;;;;;33.40;20.87;;;;;;;8.59;53.45;101930.31;5115447;27;20211;-63
2022/03/23 04:06:25;;;;;;;37.80;20.70;;;;;;;8.49;53.57;101928.38;5123384;27;20657;-66
2022/03/23 04:08:53;;;;;;;36.53;21.03;;;;;;;8.47;53.78;101924.97;5120310;27;20246;-65
2022/03/23 04:11:21;;;;;;;34.17;21.23;;;;;;;8.46;53.77;101929.41;5120293;27;20382;-65
2022/03/23 04:13:48;;;;;;;34.43;22.23;;;;;;;8.45;53.55;101921.56;5119357;27;20604;-65
2022/03/23 04:16:16;;;;;;;38.00;22.10;;;;;;;8.41;53.35;101925.38;5119315;27;20265;-65
2022/03/23 04:18:44;;;;;;;36.47;22.43;;;;;;;8.42;53.04;101916.50;5119746;28;20216;-65
2022/03/23 04:21:13;;;;;;;35.17;21.30;;;;;;;8.42;53.35;101917.34;5119602;28;20199;-65
2022/03/23 04:23:41;;;;;;;36.97;21.77;;;;;;;8.43;53.35;101932.28;5118888;28;20572;-65
2022/03/23 04:26:09;;;;;;;34.77;21.50;;;;;;;8.29;54.00;101929.63;5116863;28;20265;-65
2022/03/23 04:28:36;;;;;;;33.97;20.37;;;;;;;8.26;53.79;101932.47;5115802;27;20884;-65
2022/03/23 04:31:06;;;;;;;33.07;20.73;;;;;;;8.31;53.59;101933.06;5119681;28;20210;-65
2022/03/23 04:33:34;;;;;;;36.03;22.07;;;;;;;8.13;54.22;101936.81;5118101;28;20541;-65
2022/03/23 04:36:03;;;;;;;35.70;22.60;;;;;;;8.21;54.11;101937.19;5121516;27;20237;-65
2022/03/23 04:38:32;;;;;;;36.17;21.77;;;;;;;8.21;54.04;101934.53;5120871;27;20218;-66
2022/03/23 04:41:00;;;;;;;38.83;23.40;;;;;;;8.05;54.77;101939.09;5119219;27;20299;-65
2022/03/23 04:43:27;;;;;;;34.53;22.07;;;;;;;8.15;54.35;101940.22;5117610;28;20203;-66
2022/03/23 04:45:55;;;;;;;41.93;22.20;;;;;;;8.17;54.45;101943.63;5120898;28;20278;-65
2022/03/23 04:48:23;;;;;;;32.87;21.37;;;;;;;8.18;54.02;101945.31;5123419;27;20976;-65
2022/03/23 04:50:51;;;;;;;38.23;22.30;;;;;;;8.15;53.99;101945.50;5121428;27;20222;-64
2022/03/23 04:53:20;;;;;;;34.27;22.20;;;;;;;8.15;53.70;101945.50;5126079;27;20199;-64
2022/03/23 04:55:49;;;;;;;35.50;21.90;;;;;;;8.04;54.13;101948.81;5125666;27;20574;-64
2022/03/23 04:58:17;;;;;;;35.27;21.37;;;;;;;7.98;54.41;101948.38;5121476;27;20236;-64
2022/03/23 05:00:45;;;;;;;37.30;21.10;;;;;;;8.03;53.83;101948.91;5123575;27;20206;-65
2022/03/23 05:03:14;;;;;;;36.20;22.10;;;;;;;7.94;54.09;101940.63;5122349;27;20219;-64
2022/03/23 05:05:43;;;;;;;39.23;21.03;;;;;;;7.93;54.45;101953.91;5119629;27;20217;-65
2022/03/23 05:08:11;;;;;;;31.93;20.83;;;;;;;8.01;54.22;101953.44;5122340;27;20923;-65
2022/03/23 05:10:39;;;;;;;36.83;20.53;;;;;;;7.96;54.19;101958.16;5128054;27;20316;-65
2022/03/23 05:13:08;;;;;;;42.93;22.60;;;;;;;7.97;54.19;101957.22;5122055;27;20202;-65
2022/03/23 05:15:37;;;;;;;40.87;22.83;;;;;;;7.90;54.65;101957.63;5124889;27;20269;-66
2022/03/23 05:18:06;;;;;;;38.83;22.17;;;;;;;7.94;54.44;101964.41;5122614;27;20300;-65
2022/03/23 05:20:34;;;;;;;39.43;21.50;;;;;;;7.93;54.46;101967.13;5121624;27;20202;-66
2022/03/23 05:23:02;;;;;;;40.93;21.17;;;;;;;7.87;54.16;101964.88;5123710;27;20237;-67
2022/03/23 05:25:31;;;;;;;36.13;21.43;;;;;;;7.88;54.24;101969.22;5125655;27;20290;-66
2022/03/23 05:27:59;;;;;;;35.47;20.80;;;;;;;7.81;54.55;101963.47;5125494;27;20208;-69
2022/03/23 05:30:28;;;;;;;39.47;20.50;;;;;;;7.83;54.41;101964.19;5123073;27;20309;-66
2022/03/23 05:32:55;;;;;;;37.90;21.37;;;;;;;7.73;54.49;101967.53;5126851;27;20219;-66
2022/03/23 05:35:24;;;;;;;35.47;20.53;;;;;;;7.76;54.48;101976.09;5123214;27;20217;-66
2022/03/23 05:37:52;;;;;;;34.03;20.67;;;;;;;7.72;54.64;101974.59;5123220;27;20533;-67
2022/03/23 05:40:21;;;;;;;38.90;22.20;;;;;;;7.70;55.10;101970.34;5127955;27;20198;-65
2022/03/23 05:42:49;;;;;;;43.13;23.03;;;;;;;7.69;55.17;101969.47;5125588;27;20202;-66
2022/03/23 05:45:23;;;;;;;39.17;21.27;;;;;;;7.69;54.98;101973.91;5125496;27;20321;-65
2022/03/23 05:47:53;;;;;;;40.60;21.90;;;;;;;7.74;54.67;101977.97;5123744;27;20243;-65
2022/03/23 05:50:21;;;;;;;39.27;22.50;;;;;;;7.74;54.65;101982.44;5126822;27;20629;-66
2022/03/23 05:52:49;;;;;;;42.23;21.93;;;;;;;7.68;54.92;101988.91;5125359;27;20303;-64
2022/03/23 05:55:17;;;;;;;32.93;20.87;;;;;;;7.75;54.48;101984.94;5122530;27;20231;-67
2022/03/23 05:57:45;;;;;;;34.27;20.70;;;;;;;7.73;54.55;101984.22;5124345;27;20206;-65
2022/03/23 06:00:13;;;;;;;37.57;20.13;;;;;;;7.74;54.26;101988.53;5121129;27;20211;-65
2022/03/23 06:02:41;;;;;;;36.93;21.00;;;;;;;7.76;54.14;101989.28;5119604;27;20237;-64
2022/03/23 06:05:11;;;;;;;37.60;21.30;;;;;;;7.77;54.05;101990.13;5121707;27;20215;-64
2022/03/23 06:07:39;;;;;;;37.33;20.27;;;;;;;7.82;53.87;101986.28;5123160;27;20225;-65
2022/03/23 06:10:08;;;;;;;39.00;20.03;;;;;;;7.84;53.83;101988.81;5119971;27;20216;-65
2022/03/23 06:12:36;;;;;;;35.97;19.97;;;;;;;7.84;53.65;101989.66;5125371;27;20209;-65
2022/03/23 06:15:05;;;;;;;34.90;20.67;;;;;;;7.85;53.74;101990.53;5121795;27;20233;-65
2022/03/23 06:17:33;;;;;;;35.63;20.23;;;;;;;7.84;53.94;101987.03;5122905;27;20570;-66
2022/03/23 06:20:01;;;;;;;32.57;20.30;;;;;;;7.90;53.55;101994.59;5122813;27;20341;-66
2022/03/23 06:22:30;;;;;;;32.87;20.40;;;;;;;7.94;53.68;101990.81;5121253;27;20202;-66
2022/03/23 06:24:58;;;;;;;36.17;20.73;;;;;;;8.03;53.55;101994.66;5119127;27;20301;-64
2022/03/23 06:27:27;;;;;;;32.87;20.27;;;;;;;8.08;53.11;101997.03;5121940;27;20225;-64
2022/03/23 06:29:56;;;;;;;37.30;21.23;;;;;;;8.15;53.43;101999.22;5124887;27;20211;-66
2022/03/23 06:32:24;;;;;;;30.57;19.83;;;;;;;8.17;53.56;101997.34;5122738;27;20591;-66
2022/03/23 06:35:00;;;;;;;35.67;21.63;;;;;;;8.20;53.68;102001.56;5121611;27;20296;-65
2022/03/23 06:37:28;;;;;;;43.07;21.50;;;;;;;8.17;53.93;102002.63;5123416;27;20242;-66
2022/03/23 06:39:57;;;;;;;35.27;20.20;;;;;;;8.27;53.09;102003.72;5121718;27;20288;-66
2022/03/23 06:42:25;;;;;;;31.40;19.80;;;;;;;8.34;52.81;102004.22;5120947;27;20216;-66
2022/03/23 06:44:53;;;;;;;31.53;19.70;;;;;;;8.42;52.83;101999.31;5123205;27;20541;-65
2022/03/23 06:47:21;;;;;;;33.17;20.57;;;;;;;8.47;53.41;102001.66;5122679;27;20257;-65
2022/03/23 06:49:48;;;;;;;37.17;19.87;;;;;;;8.50;53.18;102012.88;5122198;27;20201;-65
2022/03/23 06:52:17;;;;;;;34.23;19.97;;;;;;;8.59;53.04;102014.09;5120327;27;20510;-65
2022/03/23 06:54:45;;;;;;;36.23;20.47;;;;;;;8.62;52.84;102024.47;5120339;27;20688;-65
2022/03/23 06:57:14;;;;;;;42.37;20.50;;;;;;;8.67;52.12;102017.94;5116614;27;20212;-70
2022/03/23 06:59:42;;;;;;;36.40;19.87;;;;;;;8.72;52.58;102022.06;5122040;27;20205;-65
2022/03/23 07:02:10;;;;;;;33.67;20.27;;;;;;;8.79;52.10;102026.06;5124317;27;20774;-66
2022/03/23 07:04:38;;;;;;;36.20;20.67;;;;;;;8.79;51.66;102026.06;5123512;27;20209;-66
2022/03/23 07:07:06;;;;;;;33.83;19.27;;;;;;;8.90;51.84;102031.47;5116760;27;20234;-66
2022/03/23 07:09:34;;;;;;;33.13;19.07;;;;;;;8.93;51.45;102036.56;5121737;27;20211;-66
2022/03/23 07:12:04;;;;;;;33.37;19.37;;;;;;;8.95;51.66;102038.19;5122368;27;20584;-66
2022/03/23 07:14:35;;;;;;;33.43;19.70;;;;;;;9.09;51.07;102033.78;5125710;27;20234;-65
2022/03/23 07:17:03;;;;;;;38.00;20.27;;;;;;;9.22;49.95;102045.25;5122856;27;20232;-65
2022/03/23 07:19:31;;;;;;;34.33;18.33;;;;;;;9.29;49.73;102033.31;5123683;27;20218;-65
2022/03/23 07:21:59;;;;;;;33.23;19.40;;;;;;;9.33;49.44;102038.28;5124828;27;21805;-65
2022/03/23 07:24:27;;;;;;;32.07;19.40;;;;;;;9.35;49.35;102040.84;5124368;27;20856;-65
2022/03/23 07:26:55;;;;;;;30.83;18.43;;;;;;;9.47;49.25;102039.19;5123554;27;20668;-65
2022/03/23 07:29:44;;;;;;;29.63;18.77;;;;;;;9.57;48.94;102040.25;5119678;27;20759;-65
2022/03/23 07:32:12;;;;;;;32.00;18.33;;;;;;;9.54;48.70;102040.47;5120309;27;20207;-69
2022/03/23 07:34:40;;;;;;;28.47;17.67;;;;;;;9.60;47.80;102047.97;5122488;27;20649;-66
2022/03/23 07:37:08;;;;;;;25.50;16.03;;;;;;;9.72;48.24;102049.81;5130283;27;20281;-66
2022/03/23 07:39:36;;;;;;;26.27;15.77;;;;;;;9.72;47.77;102044.50;5128064;27;20218;-67
2022/03/23 07:42:05;;;;;;;27.27;16.53;;;;;;;9.56;47.41;102044.72;5126758;27;20231;-66
2022/03/23 07:44:33;;;;;;;63.93;18.87;;;;;;;9.66;47.55;102040.50;5121390;27;20205;-66
2022/03/23 07:47:07;;;;;;;31.60;15.97;;;;;;;9.73;47.22;102046.22;5119998;27;20225;-66
2022/03/23 07:49:35;;;;;;;28.10;16.50;;;;;;;9.86;47.96;102044.41;5122082;27;20269;-66
2022/03/23 07:52:03;;;;;;;28.70;15.93;;;;;;;9.90;47.13;102040.59;5107921;27;20265;-65
2022/03/23 07:54:31;;;;;;;28.17;16.53;;;;;;;9.96;47.20;102050.78;5118846;27;20211;-65
2022/03/23 07:56:59;;;;;;;30.33;17.40;;;;;;;9.98;46.55;102048.03;5119122;27;20213;-66
2022/03/23 07:59:27;;;;;;;26.53;16.27;;;;;;;10.04;47.45;102044.94;5122712;27;20573;-65
2022/03/23 08:01:55;;;;;;;26.10;16.43;;;;;;;10.13;47.39;102050.44;5121296;27;20228;-64
2022/03/23 08:04:25;;;;;;;25.70;15.43;;;;;;;10.22;46.94;102058.75;5125049;27;20206;-65
2022/03/23 08:06:53;;;;;;;26.00;16.67;;;;;;;10.23;46.58;102049.84;5124456;27;20308;-65
2022/03/23 08:09:21;;;;;;;30.63;16.43;;;;;;;10.38;46.69;102054.91;5122994;27;20291;-65
2022/03/23 08:11:50;;;;;;;30.63;16.67;;;;;;;10.56;46.59;102048.28;5124129;27;20691;-66
2022/03/23 08:14:18;;;;;;;26.93;17.40;;;;;;;10.61;46.49;102058.59;5121051;27;20245;-65
2022/03/23 08:16:46;;;;;;;31.77;17.53;;;;;;;10.66;46.19;102059.09;5125706;27;20206;-65
2022/03/23 08:19:14;;;;;;;26.70;16.00;;;;;;;10.84;45.80;102059.56;5126311;27;20551;-65
2022/03/23 08:21:43;;;;;;;22.57;15.13;;;;;;;10.91;45.91;102051.06;5123959;28;20204;-65
2022/03/23 08:24:11;;;;;;;27.47;16.97;;;;;;;11.13;45.26;102057.44;5128584;27;20221;-66
2022/03/23 08:26:39;;;;;;;25.87;16.37;;;;;;;11.38;45.20;102059.97;5128853;27;20237;-65
2022/03/23 08:29:06;;;;;;;30.07;16.37;;;;;;;12.53;43.16;102062.59;5130728;27;20237;-65
2022/03/23 08:31:34;;;;;;;28.10;16.60;;;;;;;19.92;30.58;102046.03;5132128;27;20330;-64
2022/03/23 08:34:02;;;;;;;25.63;17.13;;;;;;;24.03;24.85;102045.72;5128793;27;20233;-66
2022/03/23 08:36:30;;;;;;;34.37;16.97;;;;;;;25.19;23.23;102044.78;5130642;27;20539;-65
2022/03/23 08:38:59;;;;;;;22.43;16.37;;;;;;;26.19;21.67;102047.28;5130068;27;20895;-66
2022/03/23 08:41:42;;;;;;;24.20;16.40;;;;;;;27.10;20.99;102047.13;5130957;27;20204;-65
2022/03/23 08:44:10;;;;;;;28.40;16.10;;;;;;;27.25;20.45;102049.56;5129682;27;20697;-66
2022/03/23 08:46:37;;;;;;;22.43;15.17;;;;;;;28.23;19.32;102047.03;5131317;27;20244;-66
2022/03/23 08:49:05;;;;;;;24.70;16.40;;;;;;;28.53;19.00;102049.81;5131078;27;20678;-66
2022/03/23 08:51:33;;;;;;;26.60;15.83;;;;;;;28.42;19.23;102045.94;5132797;27;20209;-66
2022/03/23 08:54:02;;;;;;;21.53;14.90;;;;;;;28.03;19.51;102042.59;5133818;27;20213;-65
2022/03/23 08:56:30;;;;;;;24.33;15.90;;;;;;;28.04;19.66;102044.25;5121016;27;20277;-67
2022/03/23 08:58:58;;;;;;;23.95;15.75;;;;;;;29.25;18.60;102043.34;5133894;27;20220;-66
2022/03/23 09:01:26;;;;;;;23.48;15.10;;;;;;;29.40;17.83;102048.41;5124217;27;20210;-66
2022/03/23 09:04:00;;;;;;;21.73;14.52;;;;;;;29.87;17.60;102046.53;5124591;27;20250;-67
2022/03/23 09:06:27;;;;;;;20.85;14.93;;;;;;;29.94;17.78;102050.00;5136273;27;20215;-67
2022/03/23 09:08:55;;;;;;;19.33;14.68;;;;;;;31.24;16.88;102043.91;5135790;27;20225;-67
2022/03/23 09:11:24;;;;;;;23.40;14.13;;;;;;;32.39;15.66;102046.78;5129782;27;20266;-65
2022/03/23 09:13:52;;;;;;;16.60;13.65;;;;;;;32.18;15.78;102044.06;5127839;27;20308;-66
2022/03/23 09:16:19;;;;;;;18.73;13.73;;;;;;;31.21;16.42;102044.41;5122634;27;20212;-64
2022/03/23 09:18:50;;;;;;;18.73;13.82;;;;;;;30.45;16.80;102041.00;5129887;27;20688;-66
2022/03/23 09:21:19;;;;;;;18.17;14.55;;;;;;;28.96;17.93;102041.47;5127146;27;20203;-66
2022/03/23 09:23:48;;;;;;;18.63;14.98;;;;;;;27.43;18.84;102048.78;5125034;27;20282;-66
2022/03/23 09:26:16;;;;;;;22.17;13.68;;;;;;;29.75;17.38;102040.22;5128585;27;20299;-66
2022/03/23 09:28:45;;;;;;;17.33;13.88;;;;;;;32.07;16.27;102029.31;5129130;27;20233;-66
2022/03/23 09:31:12;;;;;;;18.92;14.27;;;;;;;32.04;15.70;102035.31;5129367;27;20219;-67
2022/03/23 09:33:40;;;;;;;21.73;15.70;;;;;;;27.20;19.95;102047.47;5126328;27;20201;-65
2022/03/23 09:37:47;;;;;;;22.67;14.77;;;;;;;29.66;18.13;102038.91;5124209;27;20495;-66
2022/03/23 09:39:09;;;;;;;19.02;15.90;;;;;;;28.07;19.38;102035.63;5121415;27;20601;-67
2022/03/23 09:41:37;;;;;;;19.10;14.27;;;;;;;27.07;20.37;102035.84;5122009;27;20206;-66
2022/03/23 09:44:06;;;;;;;21.80;14.65;;;;;;;28.47;19.51;102035.19;5124717;27;20265;-66
2022/03/23 09:46:35;;;;;;;18.45;14.52;;;;;;;26.38;20.81;102036.59;5122137;27;20315;-65
2022/03/23 09:49:06;;;;;;;26.85;14.35;;;;;;;25.89;21.87;102032.50;5128686;27;20229;-67
2022/03/23 09:51:37;;;;;;;20.42;13.80;;;;;;;27.82;19.81;102028.53;5129102;27;20223;-67
2022/03/23 09:54:06;;;;;;;17.05;12.93;;;;;;;30.04;17.30;102020.16;5125187;27;20209;-65
2022/03/23 09:56:35;;;;;;;21.60;14.40;;;;;;;32.07;16.66;102007.38;5127525;27;20276;-65
2022/03/23 09:59:06;;;;;;;17.73;14.32;;;;;;;34.10;14.90;102014.81;5123352;27;20642;-65
2022/03/23 10:02:12;;;;;;;21.50;14.68;;;;;;;32.51;15.31;102014.53;5122185;27;20639;-65
2022/03/23 10:05:16;;;;;;;20.75;16.08;;;;;;;28.44;18.52;102013.81;5125928;27;20261;-66
2022/03/23 10:07:53;;;;;;;17.35;13.75;;;;;;;32.26;15.80;102013.41;5127867;27;20309;-66
2022/03/23 10:10:58;;;;;;;16.75;14.38;;;;;;;33.31;14.81;102012.91;5127676;27;20204;-66
2022/03/23 10:14:05;;;;;;;17.27;13.88;;;;;;;29.94;17.61;102025.38;5111087;27;20514;-65
2022/03/23 10:17:15;;;;;;;19.48;13.50;;;;;;;28.70;19.27;102016.19;5125239;27;20236;-65
2022/03/23 10:19:45;;;;;;;17.38;15.27;;;;;;;32.91;16.02;102009.75;5116579;27;20219;-66
2022/03/23 10:22:14;;;;;;;21.92;14.20;;;;;;;32.78;16.03;102005.53;5127821;27;20844;-65
2022/03/23 10:24:42;;;;;;;22.70;14.63;;;;;;;32.13;16.62;102015.41;5130399;27;20209;-66
2022/03/23 10:27:12;;;;;;;18.25;14.45;;;;;;;30.55;16.81;102016.59;5129696;27;20205;-65
2022/03/23 10:29:42;;;;;;;23.33;15.45;;;;;;;26.97;19.66;102011.81;5118875;27;20217;-65
2022/03/23 10:32:13;;;;;;;17.00;14.32;;;;;;;27.89;19.48;102018.41;5131669;27;20210;-65
2022/03/23 10:34:43;;;;;;;19.98;15.13;;;;;;;28.06;18.84;102017.56;5120757;27;20645;-65
2022/03/23 10:37:13;;;;;;;19.90;14.93;;;;;;;26.89;19.97;102012.91;5129763;27;20216;-65
2022/03/23 10:39:45;;;;;;;19.95;14.50;;;;;;;26.72;20.34;102008.19;5129832;27;20201;-66
2022/03/23 10:42:15;;;;;;;19.98;14.95;;;;;;;24.45;22.45;102006.75;5125181;27;20205;-69
2022/03/23 10:44:44;;;;;;;20.73;14.80;;;;;;;26.46;21.43;102001.00;5124136;27;20205;-69
2022/03/23 10:47:25;;;;;;;19.08;15.05;;;;;;;29.33;17.86;102002.03;5122273;27;20225;-65
2022/03/23 10:49:53;;;;;;;25.48;16.45;;;;;;;28.69;18.81;101997.31;5124411;27;20606;-66
2022/03/23 10:52:22;;;;;;;19.88;15.45;;;;;;;29.45;18.46;101999.34;5124552;27;20211;-65
2022/03/23 10:54:57;;;;;;;21.30;16.25;;;;;;;28.43;19.10;101993.88;5125073;27;20205;-65
2022/03/23 10:58:14;;;;;;;21.42;14.68;;;;;;;31.31;16.71;101987.03;5125158;27;20212;-66
2022/03/23 11:00:42;;;;;;;19.30;15.30;;;;;;;32.00;16.43;101977.38;5126565;27;20292;-65
2022/03/23 11:03:14;;;;;;;24.77;15.10;;;;;;;30.30;17.51;101988.69;5123964;27;20213;-65
2022/03/23 11:05:45;;;;;;;18.02;13.85;;;;;;;25.90;20.87;101998.00;5126856;27;20669;-65
2022/03/23 11:08:14;;;;;;;23.27;13.27;;;;;;;25.15;21.52;101991.97;5126361;27;20449;-65
2022/03/23 11:16:23;;;;;;;14.63;12.57;;;;;;;26.25;19.62;101983.03;5096143;27;20231;-67
2022/03/23 11:18:57;;;;;;;14.45;12.95;;;;;;;26.48;20.00;101977.09;5114426;27;20212;-66
2022/03/23 11:21:28;;;;;;;19.67;14.75;;;;;;;27.04;19.96;101979.94;5121993;27;20337;-65
2022/03/23 11:23:56;;;;;;;14.82;13.23;;;;;;;26.56;20.69;101977.69;5095188;27;20292;-66
2022/03/23 11:26:27;;;;;;;16.23;12.20;;;;;;;25.29;19.53;101976.50;5115672;27;20205;-65
2022/03/23 11:29:01;;;;;;;14.73;12.90;;;;;;;25.39;21.27;101976.94;5115427;27;20229;-65
2022/03/23 11:31:30;;;;;;;16.60;12.80;;;;;;;25.40;19.82;101962.31;5113761;27;20196;-66
2022/03/23 11:34:00;;;;;;;21.33;12.70;;;;;;;25.73;18.60;101968.56;5114447;27;20212;-66
2022/03/23 11:36:29;;;;;;;15.75;13.45;;;;;;;25.49;19.51;101956.47;5098655;27;20662;-66
2022/03/23 11:38:59;;;;;;;14.40;12.75;;;;;;;25.79;19.78;101962.28;5128366;27;20193;-64
2022/03/23 11:41:27;;;;;;;17.25;12.18;;;;;;;25.62;18.87;101950.19;5123398;27;20524;-66
2022/03/23 11:43:55;;;;;;;15.10;13.00;;;;;;;25.69;20.41;101951.00;5110647;27;20954;-67